Time;durP1;ratioP1;P1;durP2;ratioP2;P2;SDS_P1;SDS_P2;PMS_P1;PMS_P2;Temp;Humidity;BMP_temperature;BMP_pressure;BME280_temperature;BME280_humidity;BME280_pressure;Samples;Min_cycle;Max_cycle;Signal;HPM_P1;HPM_P2
2021/11/14 12:45:58;;;;;;;46.92;29.27;;;;;;;9.74;55.23;94967.81;2160559;54;20385;-71
2021/11/14 12:48:10;;;;;;;46.47;27.15;;;;;;;9.83;55.23;94964.34;2160344;49;20062;-83
2021/11/14 12:50:23;;;;;;;50.03;27.42;;;;;;;9.70;55.53;94963.88;2162555;47;20563;-72
2021/11/14 12:52:33;;;;;;;52.47;28.45;;;;;;;9.73;55.52;94968.81;2164440;54;20520;-75
2021/11/14 12:54:48;;;;;;;46.25;27.08;;;;;;;9.61;56.04;94967.38;2163911;47;20053;-71
2021/11/14 12:56:52;;;;;;;49.30;29.08;;;;;;;9.58;56.08;94965.88;2163722;54;20094;-71
2021/11/14 12:58:55;;;;;;;42.75;27.38;;;;;;;9.53;56.41;94962.88;2163810;54;20038;-70
2021/11/14 13:01:04;;;;;;;48.67;28.95;;;;;;;9.45;56.60;94960.16;2162618;39;20473;-72
2021/11/14 13:03:20;;;;;;;51.78;27.27;;;;;;;9.40;56.57;94965.84;2163518;46;20053;-79
2021/11/14 13:05:23;;;;;;;44.60;25.40;;;;;;;9.52;56.44;94966.44;2163305;47;20034;-72
2021/11/14 13:07:29;;;;;;;47.05;26.98;;;;;;;9.35;56.71;94968.03;2163115;54;20035;-72
2021/11/14 13:09:32;;;;;;;48.67;26.58;;;;;;;9.40;56.73;94972.88;2163699;54;20062;-71
2021/11/14 13:11:35;;;;;;;47.45;27.67;;;;;;;9.39;56.68;94965.97;2163130;54;20037;-71
2021/11/14 13:13:42;;;;;;;46.25;27.35;;;;;;;9.49;56.19;94958.91;2163625;54;20038;-73
2021/11/14 13:16:09;;;;;;;44.45;26.23;;;;;;;9.59;56.25;94958.84;2162383;47;20045;-72
2021/11/14 13:18:11;;;;;;;46.65;27.50;;;;;;;9.75;56.18;94961.66;2162648;47;20031;-71
2021/11/14 13:20:15;;;;;;;48.40;25.90;;;;;;;9.93;55.40;94953.00;2163463;54;20031;-72
2021/11/14 13:22:19;;;;;;;45.00;26.33;;;;;;;9.94;55.18;94952.03;2162988;47;20031;-73
2021/11/14 13:24:21;;;;;;;46.00;27.02;;;;;;;9.98;55.39;94948.13;2163193;54;20061;-72
2021/11/14 13:26:30;;;;;;;48.10;26.60;;;;;;;9.97;54.99;94951.72;2163094;54;20078;-73
2021/11/14 13:28:33;;;;;;;53.63;26.92;;;;;;;9.93;55.21;94953.00;2162887;47;20046;-72
2021/11/14 13:30:42;;;;;;;47.10;28.42;;;;;;;9.97;55.16;94954.34;2163566;47;20062;-72
2021/11/14 13:32:47;;;;;;;49.70;27.08;;;;;;;9.98;55.03;94956.81;2162673;47;20035;-73
2021/11/14 13:34:53;;;;;;;49.90;26.88;;;;;;;9.86;55.35;94963.22;2162641;54;20613;-71
2021/11/14 13:37:01;;;;;;;48.75;27.30;;;;;;;9.78;55.38;94956.09;2162785;54;20647;-69
2021/11/14 13:39:06;;;;;;;47.15;28.00;;;;;;;9.81;55.31;94949.78;2162943;47;20030;-72
2021/11/14 13:41:19;;;;;;;51.53;28.27;;;;;;;9.86;55.45;94952.75;2162837;54;20031;-70
2021/11/14 13:43:21;;;;;;;49.83;27.98;;;;;;;9.89;55.21;94952.44;2162818;47;20094;-70
2021/11/14 13:45:24;;;;;;;44.63;26.80;;;;;;;9.83;55.25;94943.41;2163853;54;20086;-71
2021/11/14 13:47:38;;;;;;;52.13;27.58;;;;;;;9.82;55.56;94931.28;2164271;54;20038;-70
2021/11/14 13:49:43;;;;;;;44.58;26.83;;;;;;;9.89;55.19;94939.38;2163751;54;20030;-71
2021/11/14 13:51:46;;;;;;;46.80;27.17;;;;;;;9.98;55.15;94938.50;2163779;54;20037;-72
2021/11/14 13:53:48;;;;;;;48.63;28.52;;;;;;;10.10;55.05;94944.31;2164291;47;20031;-71
2021/11/14 13:55:56;;;;;;;55.40;27.58;;;;;;;10.15;54.81;94944.69;2164092;54;20053;-71
2021/11/14 13:57:58;;;;;;;45.05;26.52;;;;;;;10.06;54.21;94929.88;2163557;31;20481;-72
2021/11/14 14:00:04;;;;;;;46.22;25.23;;;;;;;10.02;54.50;94939.00;2164131;47;20034;-70
2021/11/14 14:02:08;;;;;;;46.05;26.50;;;;;;;10.10;54.75;94941.69;2164397;47;20054;-72
2021/11/14 14:04:10;;;;;;;45.33;25.67;;;;;;;10.15;54.18;94941.25;2163435;39;20437;-71
2021/11/14 14:06:11;;;;;;;40.17;25.15;;;;;;;10.15;54.34;94941.25;2164139;54;20081;-73
2021/11/14 14:08:14;;;;;;;47.22;24.70;;;;;;;10.18;54.01;94947.00;2163446;47;20074;-71
2021/11/14 14:10:23;;;;;;;45.38;26.92;;;;;;;10.22;53.99;94943.13;2163585;54;20151;-73
2021/11/14 14:12:27;;;;;;;39.47;24.27;;;;;;;10.27;54.23;94949.69;2163935;39;20614;-72
2021/11/14 14:14:28;;;;;;;;;;;;;;;10.27;53.97;94945.28;2163648;54;20034;-72
2021/11/14 14:16:31;;;;;;;36.55;22.75;;;;;;;10.14;54.20;94948.28;2163539;54;19951;-72
2021/11/14 14:18:38;;;;;;;41.53;24.80;;;;;;;10.06;54.50;94948.19;2164192;39;20597;-71
2021/11/14 14:20:40;;;;;;;39.50;24.08;;;;;;;10.03;54.37;94954.56;2163196;47;20596;-72
2021/11/14 14:22:47;;;;;;;42.65;24.77;;;;;;;9.86;54.84;94954.56;2163686;54;20089;-71
2021/11/14 14:24:50;;;;;;;45.40;25.38;;;;;;;9.90;55.07;94948.06;2163753;54;20557;-72
2021/11/14 14:26:52;;;;;;;49.77;25.17;;;;;;;9.83;55.36;94950.44;2163396;49;20979;-72
2021/11/14 14:28:55;;;;;;;42.95;24.40;;;;;;;9.85;55.08;94956.31;2163518;47;20287;-72
2021/11/14 14:30:57;;;;;;;42.08;24.13;;;;;;;9.89;55.01;94955.06;2163581;47;20090;-74
2021/11/14 14:33:03;;;;;;;41.65;23.77;;;;;;;9.93;55.28;94950.38;2163251;54;20608;-71
2021/11/14 14:35:11;;;;;;;46.15;25.45;;;;;;;9.87;55.40;94946.53;2163313;54;20061;-73
2021/11/14 14:37:13;;;;;;;40.40;24.08;;;;;;;9.87;55.11;94950.97;2163510;49;20075;-73
2021/11/14 14:39:15;;;;;;;48.25;25.13;;;;;;;9.78;55.25;94950.88;2163510;54;20046;-71
2021/11/14 14:41:23;;;;;;;45.28;23.85;;;;;;;9.77;55.52;94958.88;2164128;54;20082;-69
2021/11/14 14:43:30;;;;;;;39.30;24.35;;;;;;;9.71;55.58;94959.47;2164197;47;20086;-72
2021/11/14 14:45:33;;;;;;;38.80;23.30;;;;;;;9.56;56.24;94961.75;2164002;47;20030;-72
2021/11/14 14:47:35;;;;;;;38.30;22.77;;;;;;;9.49;56.12;94958.09;2163943;47;20030;-71
2021/11/14 14:49:37;;;;;;;43.55;24.25;;;;;;;9.52;56.28;94952.56;2162958;54;20054;-72
2021/11/14 14:51:48;;;;;;;36.47;23.25;;;;;;;9.37;56.55;94947.00;2163655;54;20034;-73
2021/11/14 14:53:55;;;;;;;42.28;23.90;;;;;;;9.38;57.02;94956.50;2163474;46;20079;-72
2021/11/14 14:56:14;;;;;;;36.78;22.50;;;;;;;9.41;56.73;94962.25;2163179;54;20042;-71
2021/11/14 14:58:16;;;;;;;39.58;22.45;;;;;;;9.43;56.65;94962.91;2164893;31;20542;-72
2021/11/14 15:00:31;;;;;;;39.60;23.80;;;;;;;9.46;56.58;94968.81;2164197;47;20656;-72
2021/11/14 15:02:32;;;;;;;41.08;23.52;;;;;;;9.45;56.86;94968.00;2164179;54;20584;-72
2021/11/14 15:04:54;;;;;;;45.13;24.33;;;;;;;9.45;56.69;94968.00;2163150;47;20038;-70
2021/11/14 15:07:03;;;;;;;42.97;24.70;;;;;;;9.45;56.63;94967.19;2163495;54;20602;-74
2021/11/14 15:09:05;;;;;;;48.85;24.25;;;;;;;9.42;56.59;94966.50;2163463;54;20030;-72
2021/11/14 15:11:08;;;;;;;40.97;24.48;;;;;;;9.41;56.46;94969.25;2163272;54;20034;-72
2021/11/14 15:13:12;;;;;;;42.83;23.58;;;;;;;9.39;56.70;94974.63;2164039;54;20034;-72
2021/11/14 15:15:19;;;;;;;42.10;25.00;;;;;;;9.38;56.66;94970.38;2163933;54;20082;-72
2021/11/14 15:17:34;;;;;;;71.68;36.20;;;;;;;9.35;56.75;94970.66;2163472;54;20107;-73
2021/11/14 15:19:37;;;;;;;57.63;32.30;;;;;;;9.31;57.04;94969.28;2164077;39;20437;-71
2021/11/14 15:21:39;;;;;;;55.97;30.35;;;;;;;9.30;57.13;94972.06;2163379;46;20295;-70
2021/11/14 15:23:41;;;;;;;59.10;31.30;;;;;;;9.24;57.37;94978.69;2163120;54;20108;-73
2021/11/14 15:25:48;;;;;;;52.03;29.25;;;;;;;9.21;57.47;94971.16;2163494;54;20851;-72
2021/11/14 15:27:52;;;;;;;52.10;29.30;;;;;;;9.19;57.48;94980.94;2164078;54;20093;-71
2021/11/14 15:29:54;;;;;;;51.33;29.33;;;;;;;9.19;57.48;94986.97;2163288;54;20042;-73
2021/11/14 15:31:56;;;;;;;51.90;29.90;;;;;;;9.15;57.57;94990.03;2164040;54;20116;-73
2021/11/14 15:33:58;;;;;;;51.95;30.02;;;;;;;9.11;57.52;94983.44;2163599;47;20073;-73
2021/11/14 15:36:01;;;;;;;56.25;30.73;;;;;;;9.08;57.62;94979.31;2162990;54;20030;-74
2021/11/14 15:38:03;;;;;;;67.63;32.60;;;;;;;9.04;57.75;94977.94;2163872;54;20644;-71
2021/11/14 15:40:06;;;;;;;61.88;35.25;;;;;;;8.99;58.20;94988.84;2163408;54;20084;-74
2021/11/14 15:42:09;;;;;;;77.78;33.97;;;;;;;8.96;58.21;94981.25;2163401;54;20063;-73
2021/11/14 15:44:13;;;;;;;74.82;41.40;;;;;;;8.96;58.22;94983.88;2163500;39;20482;-71
2021/11/14 15:46:15;;;;;;;90.22;48.63;;;;;;;8.93;58.53;94985.97;2163584;54;20045;-71
2021/11/14 15:48:19;;;;;;;90.70;49.20;;;;;;;8.88;58.67;94990.78;2163288;39;20672;-71
2021/11/14 15:50:25;;;;;;;130.15;59.38;;;;;;;8.82;58.89;94994.78;2163115;54;20048;-71
2021/11/14 15:52:27;;;;;;;123.82;61.03;;;;;;;8.78;59.17;94998.66;2163478;54;20039;-71
2021/11/14 15:54:28;;;;;;;103.32;53.30;;;;;;;8.75;59.24;95004.13;2163321;47;20055;-71
2021/11/14 15:56:30;;;;;;;103.25;53.97;;;;;;;8.73;59.48;95004.31;2163159;54;20035;-72
2021/11/14 15:58:32;;;;;;;102.47;52.78;;;;;;;8.72;59.51;95007.03;2163704;54;20038;-73
2021/11/14 16:01:00;;;;;;;91.78;47.95;;;;;;;8.67;59.39;95017.06;2163994;47;20353;-73
2021/11/14 16:03:02;;;;;;;90.53;49.45;;;;;;;8.64;59.38;95012.94;2162928;47;20655;-73
2021/11/14 16:05:05;;;;;;;94.95;49.90;;;;;;;8.60;59.27;95009.81;2163464;54;20030;-71
2021/11/14 16:07:06;;;;;;;90.38;47.30;;;;;;;8.60;59.26;95007.22;2163125;47;20090;-73
2021/11/14 16:09:10;;;;;;;88.97;46.15;;;;;;;8.59;59.44;95007.34;2163692;54;20061;-73
2021/11/14 16:11:36;;;;;;;80.57;44.47;;;;;;;8.57;59.54;95004.03;2163251;47;20034;-70
2021/11/14 16:13:40;;;;;;;80.32;43.45;;;;;;;8.56;59.58;95002.38;2164043;54;20127;-72
2021/11/14 16:15:42;;;;;;;79.88;44.30;;;;;;;8.53;59.82;95000.88;2163250;47;20038;-72
2021/11/14 16:17:44;;;;;;;83.82;44.17;;;;;;;8.50;59.99;95003.78;2162995;47;20037;-75
2021/11/14 16:19:45;;;;;;;89.57;46.35;;;;;;;8.47;59.97;95013.66;2163609;49;20038;-72
2021/11/14 16:21:47;;;;;;;96.65;48.13;;;;;;;8.44;60.21;95008.72;2163882;54;20074;-72
2021/11/14 16:23:49;;;;;;;85.80;46.45;;;;;;;8.41;60.48;95012.44;2163871;50;20620;-72
2021/11/14 16:25:51;;;;;;;94.72;49.70;;;;;;;8.37;60.74;95018.88;2163231;54;20030;-73
2021/11/14 16:27:54;;;;;;;99.45;51.75;;;;;;;8.35;60.81;95020.78;2163511;39;20482;-72
2021/11/14 16:29:56;;;;;;;93.37;47.80;;;;;;;8.33;60.76;95017.50;2163172;47;20600;-72
2021/11/14 16:31:58;;;;;;;79.28;46.63;;;;;;;8.32;60.61;95027.09;2163863;54;20038;-70
2021/11/14 16:34:00;;;;;;;88.78;47.42;;;;;;;8.29;60.82;95023.94;2163471;54;20031;-71
2021/11/14 16:36:01;;;;;;;89.75;45.88;;;;;;;8.07;61.60;95025.84;2163436;47;20834;-72
2021/11/14 16:38:05;;;;;;;98.95;44.92;;;;;;;7.99;61.56;95026.50;2163536;54;20037;-70
2021/11/14 16:40:08;;;;;;;85.13;42.92;;;;;;;7.95;62.00;95022.53;2163260;54;20056;-72
2021/11/14 16:42:12;;;;;;;82.65;39.90;;;;;;;7.97;61.88;95032.84;2163199;47;20039;-72
2021/11/14 16:44:14;;;;;;;91.88;44.10;;;;;;;8.00;61.48;95032.53;2163720;47;20066;-72
2021/11/14 16:46:16;;;;;;;117.05;51.53;;;;;;;8.02;61.34;95041.06;2163283;54;20037;-73
2021/11/14 16:48:21;;;;;;;97.32;43.58;;;;;;;8.03;61.16;95034.91;2163158;39;20866;-71
2021/11/14 16:50:25;;;;;;;75.65;38.55;;;;;;;8.00;61.22;95035.16;2163259;39;20414;-72
2021/11/14 16:52:27;;;;;;;71.35;39.45;;;;;;;8.00;61.19;95033.41;2163517;39;20434;-73
2021/11/14 16:54:29;;;;;;;77.35;39.53;;;;;;;8.02;61.06;95042.84;2163168;47;20034;-74
2021/11/14 16:56:32;;;;;;;69.43;40.00;;;;;;;8.02;61.04;95042.84;2164588;31;20439;-72
2021/11/14 16:58:35;;;;;;;77.97;40.90;;;;;;;8.02;61.03;95041.06;2163304;54;20030;-73
2021/11/14 17:00:37;;;;;;;73.43;40.67;;;;;;;8.04;60.88;95044.38;2163806;47;20086;-73
2021/11/14 17:02:38;;;;;;;79.75;39.33;;;;;;;8.02;60.93;95045.47;2163368;54;20030;-72
2021/11/14 17:04:40;;;;;;;66.97;39.05;;;;;;;7.99;60.90;95047.38;2163227;47;20031;-73
2021/11/14 17:06:43;;;;;;;73.95;39.40;;;;;;;8.00;61.02;95046.44;2163001;54;20034;-71
2021/11/14 17:08:45;;;;;;;76.70;38.05;;;;;;;8.02;60.98;95050.69;2163141;54;20450;-73
2021/11/14 17:10:47;;;;;;;72.72;40.10;;;;;;;8.04;60.87;95053.97;2163452;54;20088;-73
2021/11/14 17:12:49;;;;;;;78.22;40.78;;;;;;;8.01;60.90;95052.47;2163215;47;20030;-73
2021/11/14 17:14:50;;;;;;;78.70;39.72;;;;;;;7.99;61.16;95049.19;2163197;54;20063;-72
2021/11/14 17:16:52;;;;;;;76.28;38.85;;;;;;;7.96;61.20;95049.47;2163032;54;20075;-72
2021/11/14 17:18:55;;;;;;;77.05;38.30;;;;;;;7.92;61.36;95048.06;2162832;54;20042;-70
2021/11/14 17:20:57;;;;;;;66.40;39.92;;;;;;;7.87;61.50;95053.69;2163925;47;20042;-71
2021/11/14 17:22:59;;;;;;;73.97;37.53;;;;;;;7.86;61.54;95046.00;2164091;39;20692;-75
2021/11/14 17:25:01;;;;;;;72.25;37.05;;;;;;;7.83;61.59;95047.09;2163730;54;20083;-72
2021/11/14 17:27:03;;;;;;;68.53;39.15;;;;;;;7.80;61.54;95050.78;2163941;54;20035;-72
2021/11/14 17:29:05;;;;;;;70.13;37.13;;;;;;;7.79;61.46;95049.13;2164081;54;20031;-72
2021/11/14 17:31:07;;;;;;;62.70;35.08;;;;;;;7.82;61.54;95060.25;2164302;54;20553;-71
2021/11/14 17:33:09;;;;;;;86.78;44.45;;;;;;;7.77;61.61;95053.66;2163404;47;20038;-72
2021/11/14 17:35:11;;;;;;;75.25;42.45;;;;;;;7.36;62.16;95059.84;2163503;54;20078;-71
2021/11/14 17:37:13;;;;;;;91.40;44.65;;;;;;;7.03;63.03;95063.47;2164401;54;20082;-72
2021/11/14 17:39:15;;;;;;;69.57;36.60;;;;;;;6.83;63.71;95062.53;2163753;47;20123;-72
2021/11/14 17:41:17;;;;;;;64.68;37.38;;;;;;;6.92;63.88;95069.59;2164351;47;20038;-72
2021/11/14 17:43:19;;;;;;;67.20;37.30;;;;;;;6.97;63.95;95072.66;2163725;54;20576;-73
2021/11/14 17:45:21;;;;;;;67.45;38.65;;;;;;;7.02;63.44;95069.66;2164261;47;20034;-71
2021/11/14 17:47:23;;;;;;;69.88;39.47;;;;;;;7.02;63.64;95077.47;2164389;54;20078;-73
2021/11/14 17:49:25;;;;;;;63.00;38.05;;;;;;;7.07;63.52;95072.69;2163392;47;20045;-72
2021/11/14 17:51:27;;;;;;;73.13;38.20;;;;;;;7.15;63.26;95080.69;2163666;54;20114;-71
2021/11/14 17:53:29;;;;;;;74.07;36.83;;;;;;;7.22;62.94;95084.44;2163842;54;20553;-74
2021/11/14 17:55:31;;;;;;;71.35;36.75;;;;;;;7.28;62.81;95089.13;2164495;54;20030;-74
2021/11/14 17:57:33;;;;;;;65.85;35.63;;;;;;;7.32;62.88;95092.31;2164148;39;20532;-72
2021/11/14 17:59:36;;;;;;;63.63;35.95;;;;;;;7.38;62.50;95087.41;2163689;47;20030;-75
2021/11/14 18:01:37;;;;;;;75.03;39.25;;;;;;;7.43;62.70;95087.00;2163884;39;20324;-72
2021/11/14 18:03:40;;;;;;;69.53;38.28;;;;;;;7.44;62.33;95091.25;2163891;54;20149;-72
2021/11/14 18:05:41;;;;;;;63.92;36.67;;;;;;;7.41;62.38;95088.94;2162982;54;20042;-72
2021/11/14 18:07:43;;;;;;;77.32;43.65;;;;;;;7.23;62.96;95093.91;2164150;54;20588;-72
2021/11/14 18:09:47;;;;;;;97.05;51.60;;;;;;;7.14;63.26;95094.66;2164289;54;20031;-72
2021/11/14 18:11:51;;;;;;;103.47;52.58;;;;;;;7.03;63.72;95097.34;2164347;47;20034;-72
2021/11/14 18:13:53;;;;;;;99.20;52.10;;;;;;;6.81;64.71;95103.50;2163782;47;20613;-72
2021/11/14 18:15:55;;;;;;;97.68;51.20;;;;;;;6.87;64.31;95097.81;2163649;47;20030;-72
2021/11/14 18:17:57;;;;;;;108.35;57.92;;;;;;;6.75;64.68;95097.03;2163153;47;20601;-72
2021/11/14 18:19:58;;;;;;;95.10;53.17;;;;;;;6.61;65.16;95099.94;2163712;47;20030;-72
2021/11/14 18:22:01;;;;;;;101.78;52.88;;;;;;;6.59;65.33;95096.63;2164202;54;20037;-71
2021/11/14 18:24:03;;;;;;;104.35;53.00;;;;;;;6.66;65.34;95101.19;2163936;39;20433;-70
2021/11/14 18:26:07;;;;;;;99.90;53.80;;;;;;;6.63;65.77;95105.84;2163612;47;20030;-73
2021/11/14 18:28:09;;;;;;;100.55;54.67;;;;;;;6.53;65.48;95113.56;2163478;47;20086;-71
2021/11/14 18:30:14;;;;;;;100.90;53.08;;;;;;;6.51;65.62;95111.09;2163447;39;20409;-71
2021/11/14 18:32:15;;;;;;;89.07;51.97;;;;;;;6.69;65.84;95120.94;2163649;47;20055;-71
2021/11/14 18:34:18;;;;;;;95.40;52.00;;;;;;;6.79;65.61;95119.25;2163408;47;20038;-71
2021/11/14 18:36:19;;;;;;;93.68;50.78;;;;;;;6.84;64.79;95114.50;2164137;54;20038;-72
2021/11/14 18:38:21;;;;;;;102.57;53.03;;;;;;;6.76;64.79;95116.91;2164124;31;20574;-73
2021/11/14 18:40:25;;;;;;;106.65;52.83;;;;;;;6.83;64.60;95115.44;2163660;54;20034;-72
2021/11/14 18:42:27;;;;;;;106.30;52.67;;;;;;;6.76;64.54;95116.91;2164270;47;20062;-72
2021/11/14 18:44:30;;;;;;;110.32;55.42;;;;;;;6.58;65.17;95127.03;2164012;47;20038;-73
2021/11/14 18:46:32;;;;;;;119.40;58.97;;;;;;;6.48;65.54;95134.75;2163585;47;20074;-71
2021/11/14 18:48:34;;;;;;;114.07;60.30;;;;;;;6.45;65.84;95140.19;2163878;39;21118;-72
2021/11/14 18:50:37;;;;;;;120.13;62.75;;;;;;;6.53;65.91;95139.59;2163404;54;20030;-72
2021/11/14 18:52:40;;;;;;;119.87;59.13;;;;;;;6.63;65.92;95139.69;2163578;54;20042;-72
2021/11/14 18:54:42;;;;;;;116.35;62.13;;;;;;;6.62;65.67;95140.63;2163592;54;20030;-72
2021/11/14 18:56:44;;;;;;;128.48;66.35;;;;;;;6.49;66.20;95146.81;2163619;54;20038;-72
2021/11/14 18:58:47;;;;;;;100.03;52.22;;;;;;;6.26;68.19;95146.06;2163532;54;20137;-72
2021/11/14 19:00:50;;;;;;;106.85;54.17;;;;;;;6.37;67.87;95142.63;2164502;46;20556;-72
2021/11/14 19:02:53;;;;;;;112.85;54.67;;;;;;;6.48;67.31;95141.75;2163531;39;20796;-73
2021/11/14 19:04:55;;;;;;;96.57;50.03;;;;;;;6.55;67.22;95143.72;2163696;39;20667;-72
2021/11/14 19:07:01;;;;;;;94.22;51.13;;;;;;;6.61;67.29;95144.19;2164448;47;20038;-71
2021/11/14 19:09:04;;;;;;;91.27;47.40;;;;;;;6.44;67.87;95140.34;2164221;47;20090;-71
2021/11/14 19:11:06;;;;;;;93.60;50.00;;;;;;;6.44;67.97;95143.75;2164035;47;20298;-73
2021/11/14 19:13:08;;;;;;;87.10;49.10;;;;;;;6.48;68.06;95136.56;2163837;39;20545;-71
2021/11/14 19:15:12;;;;;;;97.95;49.78;;;;;;;6.51;68.24;95136.28;2164324;47;20038;-73
2021/11/14 19:17:13;;;;;;;93.10;48.75;;;;;;;6.46;68.06;95141.88;2163407;54;20034;-72
2021/11/14 19:19:17;;;;;;;89.47;49.47;;;;;;;6.51;68.00;95144.09;2162762;47;20030;-73
2021/11/14 19:21:19;;;;;;;88.50;48.95;;;;;;;6.53;67.72;95142.19;2164570;39;20394;-72
2021/11/14 19:23:21;;;;;;;103.53;50.58;;;;;;;6.59;67.44;95149.53;2163815;54;20065;-74
2021/11/14 19:25:23;;;;;;;91.53;49.60;;;;;;;6.68;67.11;95147.94;2163563;47;20074;-72
2021/11/14 19:27:25;;;;;;;88.15;47.80;;;;;;;6.73;67.26;95146.63;2164588;39;20469;-72
2021/11/14 19:29:27;;;;;;;85.43;47.72;;;;;;;6.68;67.11;95146.16;2163241;47;20072;-74
2021/11/14 19:31:29;;;;;;;95.78;46.22;;;;;;;6.67;67.22;95141.09;2163962;47;20621;-71
2021/11/14 19:33:31;;;;;;;98.97;49.50;;;;;;;6.68;66.98;95145.34;2163665;54;20030;-73
2021/11/14 19:35:33;;;;;;;96.53;49.05;;;;;;;6.73;66.70;95151.84;2163761;54;20041;-73
2021/11/14 19:37:35;;;;;;;101.35;51.15;;;;;;;6.81;66.26;95148.59;2164382;39;20450;-72
2021/11/14 19:39:39;;;;;;;99.28;51.65;;;;;;;6.88;66.12;95154.13;2163996;54;20042;-72
2021/11/14 19:41:42;;;;;;;103.38;54.85;;;;;;;6.93;66.06;95150.22;2163663;47;20031;-71
2021/11/14 19:43:44;;;;;;;100.38;53.53;;;;;;;6.96;65.49;95160.38;2163253;54;20032;-73
2021/11/14 19:45:46;;;;;;;109.85;57.75;;;;;;;6.87;66.23;95148.09;2163710;47;20030;-72
2021/11/14 19:47:48;;;;;;;104.38;55.03;;;;;;;6.90;65.96;95158.25;2163526;54;20043;-72
2021/11/14 19:49:50;;;;;;;111.40;57.08;;;;;;;6.93;66.00;95152.00;2162927;54;20603;-74
2021/11/14 19:51:52;;;;;;;168.15;72.63;;;;;;;6.91;66.19;95161.72;2163820;39;20534;-73
2021/11/14 19:53:54;;;;;;;135.82;66.53;;;;;;;6.94;65.63;95154.47;2163935;54;20086;-72
2021/11/14 19:55:57;;;;;;;132.15;66.22;;;;;;;6.97;65.19;95159.44;2163341;54;20557;-72
2021/11/14 19:57:59;;;;;;;155.10;73.22;;;;;;;6.97;64.98;95161.22;2163236;54;20101;-72
2021/11/14 20:00:01;;;;;;;137.15;63.88;;;;;;;7.00;64.95;95166.16;2163004;54;20030;-73
2021/11/14 20:02:04;;;;;;;122.13;62.13;;;;;;;7.03;64.70;95171.09;2163297;54;20031;-71
2021/11/14 20:04:06;;;;;;;128.80;63.65;;;;;;;6.89;65.12;95163.63;2163565;47;20126;-73
2021/11/14 20:06:08;;;;;;;120.35;61.45;;;;;;;6.85;65.20;95164.81;2163441;47;20030;-72
2021/11/14 20:08:10;;;;;;;132.65;64.57;;;;;;;6.87;64.95;95166.34;2163167;54;20067;-71
2021/11/14 20:10:16;;;;;;;125.32;63.35;;;;;;;6.92;65.01;95166.78;2163928;47;20057;-72
2021/11/14 20:12:18;;;;;;;110.20;57.97;;;;;;;6.92;64.77;95163.34;2163982;47;20035;-71
2021/11/14 20:14:20;;;;;;;106.25;54.97;;;;;;;6.94;64.69;95156.25;2163803;47;20125;-71
2021/11/14 20:16:23;;;;;;;111.57;55.90;;;;;;;6.97;64.42;95156.00;2163192;54;20613;-72
2021/11/14 20:18:26;;;;;;;93.20;52.45;;;;;;;6.84;64.49;95164.00;2163102;39;20449;-71
2021/11/14 20:20:29;;;;;;;94.55;52.53;;;;;;;6.61;65.45;95157.22;2163001;54;20101;-70
2021/11/14 20:22:32;;;;;;;102.88;52.45;;;;;;;6.60;65.69;95164.19;2163345;54;20090;-72
2021/11/14 20:24:34;;;;;;;100.95;51.95;;;;;;;6.65;65.49;95162.03;2163931;54;20047;-73
2021/11/14 20:26:36;;;;;;;100.28;51.80;;;;;;;6.69;65.03;95167.81;2163919;47;20102;-72
2021/11/14 20:28:38;;;;;;;101.70;50.92;;;;;;;6.72;65.19;95162.38;2163733;54;20771;-72
2021/11/14 20:30:40;;;;;;;98.97;52.30;;;;;;;6.63;64.76;95163.94;2163123;54;20034;-73
2021/11/14 20:32:43;;;;;;;96.00;52.10;;;;;;;6.64;65.29;95162.16;2162881;54;20115;-72
2021/11/14 20:34:45;;;;;;;91.68;48.75;;;;;;;6.63;65.18;95163.13;2163942;39;20445;-73
2021/11/14 20:36:47;;;;;;;91.15;48.20;;;;;;;6.63;65.24;95161.34;2163133;47;20031;-73
2021/11/14 20:38:49;;;;;;;83.55;44.97;;;;;;;6.52;65.03;95169.19;2163433;54;20055;-72
2021/11/14 20:40:53;;;;;;;88.75;46.30;;;;;;;6.37;65.76;95166.03;2163217;47;20081;-72
2021/11/14 20:42:56;;;;;;;90.50;46.30;;;;;;;6.34;65.95;95169.69;2163038;47;20032;-72
2021/11/14 20:45:00;;;;;;;80.35;43.55;;;;;;;6.36;66.17;95164.38;2163619;50;20065;-72
2021/11/14 20:47:03;;;;;;;78.60;40.55;;;;;;;6.28;65.73;95174.53;2163187;54;20580;-71
2021/11/14 20:49:07;;;;;;;76.97;41.40;;;;;;;5.93;66.37;95172.91;2163256;39;20649;-73
2021/11/14 20:51:09;;;;;;;80.43;42.40;;;;;;;5.69;67.81;95180.81;2162871;54;20098;-72
2021/11/14 20:53:11;;;;;;;72.72;41.90;;;;;;;5.64;68.05;95182.97;2163140;54;20573;-70
2021/11/14 20:55:13;;;;;;;82.00;45.42;;;;;;;5.65;68.41;95182.81;2164577;47;20030;-73
2021/11/14 20:57:16;;;;;;;78.43;41.65;;;;;;;5.74;68.21;95184.75;2164888;39;20461;-70
2021/11/14 20:59:20;;;;;;;81.63;45.03;;;;;;;5.78;68.33;95181.91;2163527;47;20045;-73
2021/11/14 21:01:23;;;;;;;78.55;41.65;;;;;;;5.93;67.69;95183.31;2164520;46;20030;-71
2021/11/14 21:03:25;;;;;;;75.07;42.42;;;;;;;6.05;67.08;95187.59;2164062;54;20034;-72
2021/11/14 21:05:27;;;;;;;75.30;42.58;;;;;;;6.15;66.90;95179.88;2164006;46;20640;-71
2021/11/14 21:07:29;;;;;;;78.20;43.85;;;;;;;6.22;66.60;95185.47;2164396;54;20632;-71
2021/11/14 21:09:31;;;;;;;81.07;44.05;;;;;;;6.28;66.29;95188.41;2164350;54;20095;-73
2021/11/14 21:11:37;;;;;;;78.32;43.17;;;;;;;6.32;66.45;95181.16;2164511;47;20048;-72
2021/11/14 21:13:39;;;;;;;77.95;41.95;;;;;;;6.31;66.16;95187.34;2164158;54;20034;-71
2021/11/14 21:15:42;;;;;;;85.03;45.38;;;;;;;6.32;66.08;95183.75;2163492;47;20088;-72
2021/11/14 21:18:03;;;;;;;87.35;46.13;;;;;;;6.35;66.25;95191.34;2163857;39;20426;-72
2021/11/14 21:20:11;;;;;;;81.90;45.95;;;;;;;6.32;66.22;95194.19;2164086;39;20465;-72
2021/11/14 21:22:12;;;;;;;86.55;45.97;;;;;;;6.03;66.67;95192.09;2164490;54;20031;-73
2021/11/14 21:24:14;;;;;;;87.22;48.03;;;;;;;6.03;67.27;95201.66;2164479;51;20030;-73
2021/11/14 21:26:16;;;;;;;96.43;49.47;;;;;;;6.02;67.36;95207.81;2163782;54;20887;-72
2021/11/14 21:28:18;;;;;;;87.40;47.05;;;;;;;5.85;67.49;95206.47;2163714;54;20053;-72
2021/11/14 21:30:20;;;;;;;89.00;45.70;;;;;;;5.71;68.21;95215.34;2163591;47;20031;-73
2021/11/14 21:32:25;;;;;;;97.82;45.60;;;;;;;5.42;68.82;95218.38;2164524;47;20038;-72
2021/11/14 21:39:17;;;;;;;92.35;47.50;;;;;;;4.71;72.15;95226.13;2164436;54;20067;-73
2021/11/14 21:41:19;;;;;;;94.35;48.28;;;;;;;4.67;72.89;95221.28;2163762;47;20030;-74
2021/11/14 21:43:21;;;;;;;100.13;52.70;;;;;;;4.69;72.84;95220.22;2164244;47;20031;-73
2021/11/14 21:45:23;;;;;;;101.55;52.83;;;;;;;4.77;72.99;95226.63;2164193;54;20042;-73
2021/11/14 21:47:25;;;;;;;110.45;55.33;;;;;;;4.85;72.69;95214.75;2163692;47;20034;-71
2021/11/14 21:49:27;;;;;;;107.32;54.97;;;;;;;4.79;73.48;95219.56;2163496;54;20034;-73
2021/11/14 21:51:29;;;;;;;109.30;53.13;;;;;;;4.89;73.10;95225.75;2163745;54;20082;-71
2021/11/14 21:53:31;;;;;;;102.18;52.70;;;;;;;5.02;72.45;95228.28;2163723;50;20042;-72
2021/11/14 21:55:35;;;;;;;108.07;54.97;;;;;;;5.18;71.92;95227.97;2164249;47;20039;-72
2021/11/14 21:57:37;;;;;;;109.00;53.95;;;;;;;5.33;71.27;95225.09;2164144;54;20131;-71
2021/11/14 21:59:39;;;;;;;115.95;57.17;;;;;;;5.30;71.39;95225.28;2163507;54;20060;-73
2021/11/14 22:01:42;;;;;;;111.88;59.08;;;;;;;5.27;71.76;95227.28;2164233;47;20039;-72
2021/11/14 22:03:45;;;;;;;115.35;61.60;;;;;;;5.19;72.08;95222.66;2163954;47;20408;-71
2021/11/14 22:05:47;;;;;;;118.07;60.20;;;;;;;5.05;72.52;95221.06;2163750;54;20040;-70
2021/11/14 22:07:49;;;;;;;126.00;65.78;;;;;;;4.90;73.04;95228.25;2164334;50;20054;-72
2021/11/14 22:09:50;;;;;;;123.82;64.47;;;;;;;4.92;73.16;95236.72;2163551;54;20031;-72
2021/11/14 22:11:52;;;;;;;131.40;69.43;;;;;;;5.03;72.82;95232.50;2163460;47;20031;-71
2021/11/14 22:13:54;;;;;;;138.63;68.88;;;;;;;5.18;71.86;95228.78;2163614;46;20145;-71
2021/11/14 22:15:56;;;;;;;118.80;61.03;;;;;;;5.33;71.09;95232.03;2164132;54;20031;-71
2021/11/14 22:17:58;;;;;;;103.45;53.63;;;;;;;5.43;70.38;95240.78;2163734;54;20037;-72
2021/11/14 22:20:00;;;;;;;97.82;48.97;;;;;;;5.51;70.14;95233.25;2163229;47;20030;-73
2021/11/14 22:22:02;;;;;;;88.32;49.33;;;;;;;5.56;69.96;95238.09;2163581;47;20031;-71
2021/11/14 22:24:04;;;;;;;85.38;44.90;;;;;;;5.61;69.32;95237.75;2163629;54;20034;-72